Maersk Iowa — KABL — position and weather

sailwx.info

Track history (hours):
 
Tides and Currents Weather Stations Pressure Air Temp Water Temp Dewpoint Dewpoint Depression Visibility Wind Speed Wind Dir Waves Ship Positions

Maersk Iowa

Owner: FARRELL LINES INC, Norfolk, VA. More information available from US FCC via Universal Licensing System and Coast Guard Vessel Documentation Center.

Last reported at 2015-Feb-27 19:10 UTC. Time now 2015-Feb-27 22:44 UTC.
Position N 25°35' W 080°02'.

Length 292 m; draft 10.7 m.

Type: Ship (hazmat cat A). MMSI: 367606000.

Date/timePositionNaut miles runAvg speedWind from/ knotsBaromVisibWave heightAir tempDewpointWater temp
2015-Feb-27 19:10N 25°35' W 080°02'1016.1
2015-Feb-27 18:34N 25°45' W 080°04'4 0.5
2015-Feb-27 09:33N 25°46' W 080°08'7 7.4
2015-Feb-27 08:34N 25°50' W 080°02'1716.9
2015-Feb-27 07:33N 26°07' W 079°60'1918.5
2015-Feb-27 06:33N 26°26' W 079°59'1817.7
2015-Feb-27 05:33N 26°44' W 079°59'1413.8
2015-Feb-27 04:34N 26°57' W 079°59'  
2015-Feb-23 00:00N 39°18' W 073°54'1825.3 190 / 31023.210.8 1.5 3.0 0.3 2.7
2015-Feb-22 23:17N 39°36' W 073°54'1419.3
2015-Feb-22 22:32N 39°50' W 073°52'1917.7
2015-Feb-22 21:26N 40°10' W 073°50'10 9.3
2015-Feb-22 20:25N 40°19' W 073°49'8 8.8
2015-Feb-22 19:33N 40°27' W 073°50'1010.5
2015-Feb-22 18:33N 40°33' W 074°02'9 8.5
2015-Feb-22 17:34N 40°39' W 074°09'1 1.2
2015-Feb-22 16:33N 40°40' W 074°09'0 0.0
2015-Feb-22 15:31N 40°40' W 074°09'0 0.0
2015-Feb-22 14:34N 40°40' W 074°09'0 0.0
2015-Feb-22 13:34N 40°40' W 074°09'0 0.0
2015-Feb-22 12:34N 40°40' W 074°09'0 0.0
2015-Feb-22 11:34N 40°40' W 074°09'0 0.0
2015-Feb-22 10:34N 40°40' W 074°09'0 0.0
2015-Feb-22 09:34N 40°40' W 074°09'0 0.0
2015-Feb-22 08:34N 40°40' W 074°09'0 0.0
2015-Feb-22 07:34N 40°40' W 074°09'0 0.0
2015-Feb-22 06:33N 40°40' W 074°09'0 0.0
2015-Feb-22 05:33N 40°40' W 074°09'0 0.0
2015-Feb-22 04:34N 40°40' W 074°09'0 0.0
2015-Feb-22 03:33N 40°40' W 074°09'0 0.0
2015-Feb-22 02:34N 40°40' W 074°09'0 0.0
2015-Feb-22 01:34N 40°40' W 074°09'0 0.0
2015-Feb-22 00:34N 40°40' W 074°09'0 0.0
2015-Feb-21 23:34N 40°40' W 074°09'0 0.0
2015-Feb-21 22:34N 40°40' W 074°09'0 0.0
2015-Feb-21 21:33N 40°40' W 074°09'0 0.0
2015-Feb-21 20:33N 40°40' W 074°09'0 0.0
2015-Feb-21 19:34N 40°40' W 074°09'0 0.0
2015-Feb-21 18:33N 40°40' W 074°09'0 0.2
2015-Feb-21 17:33N 40°40' W 074°09'4 4.3
2015-Feb-21 16:34N 40°38' W 074°03'1111.5
2015-Feb-21 15:33N 40°29' W 073°54'9 8.5
2015-Feb-21 14:33N 40°25' W 073°45'7914.9
2015-Feb-21 09:15N 39°58' W 072°07'1318.7
2015-Feb-21 08:33N 39°55' W 071°50'2018.6
2015-Feb-21 07:30N 39°51' W 071°25'  
2015-Feb-18 13:00N 36°06' W 047°30'10214.5 130 / 251030.110.8 1.019.015.6
2015-Feb-18 06:00N 36°06' W 045°24'   190 / 131030.010.8 1.518.016.0
Track history (hours):
 
Tides and Currents Weather Stations Pressure Air Temp Water Temp Dewpoint Dewpoint Depression Visibility Wind Speed Wind Dir Waves Ship Positions

Maersk Iowa

Owner: FARRELL LINES INC, Norfolk, VA. More information available from US FCC via Universal Licensing System and Coast Guard Vessel Documentation Center.

Last reported at 2015-Feb-27 19:10 UTC. Time now 2015-Feb-27 22:44 UTC.
Position N 25°35' W 080°02'.

Length 292 m; draft 10.7 m.

Type: Ship (hazmat cat A). MMSI: 367606000.

Date/timePositionNaut miles runAvg speedWind from/ knotsBaromVisibWave heightAir tempDewpointWater temp
2015-Feb-27 19:10N 25°35' W 080°02'1016.1
2015-Feb-27 18:34N 25°45' W 080°04'4 0.5
2015-Feb-27 09:33N 25°46' W 080°08'7 7.4
2015-Feb-27 08:34N 25°50' W 080°02'1716.9
2015-Feb-27 07:33N 26°07' W 079°60'1918.5
2015-Feb-27 06:33N 26°26' W 079°59'1817.7
2015-Feb-27 05:33N 26°44' W 079°59'1413.8
2015-Feb-27 04:34N 26°57' W 079°59'  
2015-Feb-23 00:00N 39°18' W 073°54'1825.3 190 / 31023.210.8 1.5 3.0 0.3 2.7
2015-Feb-22 23:17N 39°36' W 073°54'1419.3
2015-Feb-22 22:32N 39°50' W 073°52'1917.7
2015-Feb-22 21:26N 40°10' W 073°50'10 9.3
2015-Feb-22 20:25N 40°19' W 073°49'8 8.8
2015-Feb-22 19:33N 40°27' W 073°50'1010.5
2015-Feb-22 18:33N 40°33' W 074°02'9 8.5
2015-Feb-22 17:34N 40°39' W 074°09'1 1.2
2015-Feb-22 16:33N 40°40' W 074°09'0 0.0
2015-Feb-22 15:31N 40°40' W 074°09'0 0.0
2015-Feb-22 14:34N 40°40' W 074°09'0 0.0
2015-Feb-22 13:34N 40°40' W 074°09'0 0.0
2015-Feb-22 12:34N 40°40' W 074°09'0 0.0
2015-Feb-22 11:34N 40°40' W 074°09'0 0.0
2015-Feb-22 10:34N 40°40' W 074°09'0 0.0
2015-Feb-22 09:34N 40°40' W 074°09'0 0.0
2015-Feb-22 08:34N 40°40' W 074°09'0 0.0
2015-Feb-22 07:34N 40°40' W 074°09'0 0.0
2015-Feb-22 06:33N 40°40' W 074°09'0 0.0
2015-Feb-22 05:33N 40°40' W 074°09'0 0.0
2015-Feb-22 04:34N 40°40' W 074°09'0 0.0
2015-Feb-22 03:33N 40°40' W 074°09'0 0.0
2015-Feb-22 02:34N 40°40' W 074°09'0 0.0
2015-Feb-22 01:34N 40°40' W 074°09'0 0.0
2015-Feb-22 00:34N 40°40' W 074°09'0 0.0
2015-Feb-21 23:34N 40°40' W 074°09'0 0.0
2015-Feb-21 22:34N 40°40' W 074°09'0 0.0
2015-Feb-21 21:33N 40°40' W 074°09'0 0.0
2015-Feb-21 20:33N 40°40' W 074°09'0 0.0
2015-Feb-21 19:34N 40°40' W 074°09'0 0.0
2015-Feb-21 18:33N 40°40' W 074°09'0 0.2
2015-Feb-21 17:33N 40°40' W 074°09'4 4.3
2015-Feb-21 16:34N 40°38' W 074°03'1111.5
2015-Feb-21 15:33N 40°29' W 073°54'9 8.5
2015-Feb-21 14:33N 40°25' W 073°45'7914.9
2015-Feb-21 09:15N 39°58' W 072°07'1318.7
2015-Feb-21 08:33N 39°55' W 071°50'2018.6
2015-Feb-21 07:30N 39°51' W 071°25'  
2015-Feb-18 13:00N 36°06' W 047°30'10214.5 130 / 251030.110.8 1.019.015.6
2015-Feb-18 06:00N 36°06' W 045°24'   190 / 131030.010.8 1.518.016.0

Dump ship's entire track history